sensor_id;sensor_type;location;lat;lon;timestamp;P1;durP1;ratioP1;P2;durP2;ratioP2
21611;SDS011;47005;52.292;13.452;2023-04-16T00:01:27;8.37;;;5.83;;
21611;SDS011;47005;52.292;13.452;2023-04-16T00:03:53;8.20;;;6.70;;
21611;SDS011;47005;52.292;13.452;2023-04-16T00:06:19;10.53;;;6.43;;
21611;SDS011;47005;52.292;13.452;2023-04-16T00:08:45;10.57;;;7.37;;
21611;SDS011;47005;52.292;13.452;2023-04-16T00:11:11;9.57;;;7.07;;
21611;SDS011;47005;52.292;13.452;2023-04-16T00:13:36;9.17;;;6.47;;
21611;SDS011;47005;52.292;13.452;2023-04-16T00:16:02;9.27;;;6.83;;
21611;SDS011;47005;52.292;13.452;2023-04-16T00:18:31;9.30;;;6.60;;
21611;SDS011;47005;52.292;13.452;2023-04-16T00:20:56;9.37;;;6.50;;
21611;SDS011;47005;52.292;13.452;2023-04-16T00:23:23;13.23;;;6.90;;
21611;SDS011;47005;52.292;13.452;2023-04-16T00:25:49;12.70;;;7.20;;
21611;SDS011;47005;52.292;13.452;2023-04-16T00:28:15;9.13;;;6.97;;
21611;SDS011;47005;52.292;13.452;2023-04-16T00:30:41;9.37;;;6.67;;
21611;SDS011;47005;52.292;13.452;2023-04-16T00:33:06;10.03;;;6.87;;
21611;SDS011;47005;52.292;13.452;2023-04-16T00:35:33;9.93;;;6.40;;
21611;SDS011;47005;52.292;13.452;2023-04-16T00:37:58;9.23;;;7.00;;
21611;SDS011;47005;52.292;13.452;2023-04-16T00:40:27;8.97;;;6.23;;
21611;SDS011;47005;52.292;13.452;2023-04-16T00:42:53;8.73;;;6.23;;
21611;SDS011;47005;52.292;13.452;2023-04-16T00:45:19;7.67;;;5.77;;
21611;SDS011;47005;52.292;13.452;2023-04-16T00:47:45;12.10;;;6.53;;
21611;SDS011;47005;52.292;13.452;2023-04-16T00:50:11;8.97;;;6.90;;
21611;SDS011;47005;52.292;13.452;2023-04-16T00:52:37;9.23;;;6.60;;
21611;SDS011;47005;52.292;13.452;2023-04-16T00:55:04;8.33;;;6.40;;
21611;SDS011;47005;52.292;13.452;2023-04-16T00:57:31;10.17;;;7.50;;
21611;SDS011;47005;52.292;13.452;2023-04-16T00:59:57;9.90;;;6.80;;
21611;SDS011;47005;52.292;13.452;2023-04-16T01:02:23;9.43;;;6.40;;
21611;SDS011;47005;52.292;13.452;2023-04-16T01:04:49;10.30;;;6.87;;
21611;SDS011;47005;52.292;13.452;2023-04-16T01:07:15;8.63;;;7.23;;
21611;SDS011;47005;52.292;13.452;2023-04-16T01:09:41;10.40;;;6.63;;
21611;SDS011;47005;52.292;13.452;2023-04-16T01:12:07;8.90;;;5.87;;
21611;SDS011;47005;52.292;13.452;2023-04-16T01:14:32;9.27;;;6.43;;
21611;SDS011;47005;52.292;13.452;2023-04-16T01:17:00;11.50;;;6.53;;
21611;SDS011;47005;52.292;13.452;2023-04-16T01:19:27;9.00;;;6.30;;
21611;SDS011;47005;52.292;13.452;2023-04-16T01:21:55;7.73;;;5.90;;
21611;SDS011;47005;52.292;13.452;2023-04-16T01:24:22;8.03;;;6.03;;
21611;SDS011;47005;52.292;13.452;2023-04-16T01:26:47;8.47;;;6.33;;
21611;SDS011;47005;52.292;13.452;2023-04-16T01:29:13;8.37;;;6.60;;
21611;SDS011;47005;52.292;13.452;2023-04-16T01:31:38;7.37;;;5.23;;
21611;SDS011;47005;52.292;13.452;2023-04-16T01:34:04;8.40;;;6.27;;
21611;SDS011;47005;52.292;13.452;2023-04-16T01:36:30;9.23;;;6.77;;
21611;SDS011;47005;52.292;13.452;2023-04-16T01:38:56;9.63;;;6.40;;
21611;SDS011;47005;52.292;13.452;2023-04-16T01:41:21;8.53;;;6.47;;
21611;SDS011;47005;52.292;13.452;2023-04-16T01:43:47;9.70;;;7.77;;
21611;SDS011;47005;52.292;13.452;2023-04-16T01:46:14;13.37;;;10.13;;
21611;SDS011;47005;52.292;13.452;2023-04-16T01:48:45;12.43;;;9.33;;
21611;SDS011;47005;52.292;13.452;2023-04-16T01:51:11;9.00;;;7.77;;
21611;SDS011;47005;52.292;13.452;2023-04-16T01:53:37;11.07;;;8.67;;
21611;SDS011;47005;52.292;13.452;2023-04-16T01:56:03;10.43;;;7.97;;
21611;SDS011;47005;52.292;13.452;2023-04-16T01:58:30;10.00;;;7.63;;
21611;SDS011;47005;52.292;13.452;2023-04-16T02:00:57;11.83;;;8.93;;
21611;SDS011;47005;52.292;13.452;2023-04-16T02:03:23;12.37;;;10.07;;
21611;SDS011;47005;52.292;13.452;2023-04-16T02:05:49;12.97;;;9.47;;
21611;SDS011;47005;52.292;13.452;2023-04-16T02:08:15;13.60;;;10.53;;
21611;SDS011;47005;52.292;13.452;2023-04-16T02:10:44;15.03;;;11.33;;
21611;SDS011;47005;52.292;13.452;2023-04-16T02:13:10;12.97;;;11.03;;
21611;SDS011;47005;52.292;13.452;2023-04-16T02:15:36;23.93;;;11.40;;
21611;SDS011;47005;52.292;13.452;2023-04-16T02:18:04;16.23;;;12.10;;
21611;SDS011;47005;52.292;13.452;2023-04-16T02:20:30;15.80;;;12.87;;
21611;SDS011;47005;52.292;13.452;2023-04-16T02:22:55;14.83;;;11.83;;
21611;SDS011;47005;52.292;13.452;2023-04-16T02:25:21;16.83;;;12.00;;
21611;SDS011;47005;52.292;13.452;2023-04-16T02:27:48;16.73;;;11.67;;
21611;SDS011;47005;52.292;13.452;2023-04-16T02:30:13;17.67;;;13.53;;
21611;SDS011;47005;52.292;13.452;2023-04-16T02:32:39;17.33;;;12.20;;
21611;SDS011;47005;52.292;13.452;2023-04-16T02:35:05;16.17;;;11.63;;
21611;SDS011;47005;52.292;13.452;2023-04-16T02:37:31;17.97;;;12.80;;
21611;SDS011;47005;52.292;13.452;2023-04-16T02:39:56;15.70;;;12.70;;
21611;SDS011;47005;52.292;13.452;2023-04-16T02:42:22;19.00;;;12.83;;
21611;SDS011;47005;52.292;13.452;2023-04-16T02:44:48;17.33;;;14.10;;
21611;SDS011;47005;52.292;13.452;2023-04-16T02:47:13;19.07;;;13.83;;
21611;SDS011;47005;52.292;13.452;2023-04-16T02:49:39;18.27;;;14.07;;
21611;SDS011;47005;52.292;13.452;2023-04-16T02:52:04;20.67;;;14.03;;
21611;SDS011;47005;52.292;13.452;2023-04-16T02:54:30;17.27;;;13.90;;
21611;SDS011;47005;52.292;13.452;2023-04-16T02:56:56;19.17;;;13.67;;
21611;SDS011;47005;52.292;13.452;2023-04-16T02:59:21;18.23;;;14.20;;
21611;SDS011;47005;52.292;13.452;2023-04-16T03:01:47;19.30;;;14.73;;
21611;SDS011;47005;52.292;13.452;2023-04-16T03:04:13;17.77;;;13.63;;
21611;SDS011;47005;52.292;13.452;2023-04-16T03:06:38;16.97;;;13.10;;
21611;SDS011;47005;52.292;13.452;2023-04-16T03:09:07;20.07;;;14.47;;
21611;SDS011;47005;52.292;13.452;2023-04-16T03:11:32;16.20;;;12.93;;
21611;SDS011;47005;52.292;13.452;2023-04-16T03:13:58;17.33;;;13.53;;
21611;SDS011;47005;52.292;13.452;2023-04-16T03:16:24;18.87;;;13.57;;
21611;SDS011;47005;52.292;13.452;2023-04-16T03:18:50;15.97;;;13.10;;
21611;SDS011;47005;52.292;13.452;2023-04-16T03:21:15;16.33;;;12.97;;
21611;SDS011;47005;52.292;13.452;2023-04-16T03:23:41;20.67;;;15.07;;
21611;SDS011;47005;52.292;13.452;2023-04-16T03:26:07;16.40;;;12.30;;
21611;SDS011;47005;52.292;13.452;2023-04-16T03:28:32;18.53;;;14.10;;
21611;SDS011;47005;52.292;13.452;2023-04-16T03:30:58;18.60;;;13.93;;
21611;SDS011;47005;52.292;13.452;2023-04-16T03:33:24;19.87;;;14.33;;
21611;SDS011;47005;52.292;13.452;2023-04-16T03:35:56;19.23;;;12.93;;
21611;SDS011;47005;52.292;13.452;2023-04-16T03:38:23;19.03;;;14.20;;
21611;SDS011;47005;52.292;13.452;2023-04-16T03:40:49;17.27;;;14.10;;
21611;SDS011;47005;52.292;13.452;2023-04-16T03:43:15;17.97;;;12.60;;
21611;SDS011;47005;52.292;13.452;2023-04-16T03:45:44;20.80;;;13.67;;
21611;SDS011;47005;52.292;13.452;2023-04-16T03:48:10;16.27;;;12.40;;
21611;SDS011;47005;52.292;13.452;2023-04-16T03:50:36;17.47;;;13.03;;
21611;SDS011;47005;52.292;13.452;2023-04-16T03:53:01;17.27;;;12.73;;
21611;SDS011;47005;52.292;13.452;2023-04-16T03:55:30;21.90;;;13.97;;
21611;SDS011;47005;52.292;13.452;2023-04-16T03:57:55;20.00;;;14.40;;
21611;SDS011;47005;52.292;13.452;2023-04-16T04:00:21;17.93;;;12.93;;
21611;SDS011;47005;52.292;13.452;2023-04-16T04:02:47;20.20;;;13.87;;
21611;SDS011;47005;52.292;13.452;2023-04-16T04:05:15;15.20;;;11.90;;
21611;SDS011;47005;52.292;13.452;2023-04-16T04:07:41;15.00;;;12.03;;
21611;SDS011;47005;52.292;13.452;2023-04-16T04:10:07;17.93;;;13.40;;
21611;SDS011;47005;52.292;13.452;2023-04-16T04:12:33;18.73;;;14.27;;
21611;SDS011;47005;52.292;13.452;2023-04-16T04:14:59;23.30;;;13.50;;
21611;SDS011;47005;52.292;13.452;2023-04-16T04:17:24;20.20;;;13.83;;
21611;SDS011;47005;52.292;13.452;2023-04-16T04:19:50;18.23;;;14.23;;
21611;SDS011;47005;52.292;13.452;2023-04-16T04:22:18;17.77;;;14.20;;
21611;SDS011;47005;52.292;13.452;2023-04-16T04:24:44;20.10;;;14.00;;
21611;SDS011;47005;52.292;13.452;2023-04-16T04:27:09;16.83;;;13.40;;
21611;SDS011;47005;52.292;13.452;2023-04-16T04:29:35;19.40;;;14.93;;
21611;SDS011;47005;52.292;13.452;2023-04-16T04:32:01;19.93;;;16.13;;
21611;SDS011;47005;52.292;13.452;2023-04-16T04:34:26;21.83;;;15.50;;
21611;SDS011;47005;52.292;13.452;2023-04-16T04:36:52;23.63;;;16.80;;
21611;SDS011;47005;52.292;13.452;2023-04-16T04:39:17;26.07;;;16.90;;
21611;SDS011;47005;52.292;13.452;2023-04-16T04:41:45;22.23;;;15.27;;
21611;SDS011;47005;52.292;13.452;2023-04-16T04:44:11;25.77;;;17.40;;
21611;SDS011;47005;52.292;13.452;2023-04-16T04:46:38;28.93;;;18.43;;
21611;SDS011;47005;52.292;13.452;2023-04-16T04:49:04;24.40;;;17.10;;
21611;SDS011;47005;52.292;13.452;2023-04-16T04:51:30;27.50;;;18.93;;
21611;SDS011;47005;52.292;13.452;2023-04-16T04:53:56;24.60;;;18.30;;
21611;SDS011;47005;52.292;13.452;2023-04-16T04:56:22;30.47;;;19.67;;
21611;SDS011;47005;52.292;13.452;2023-04-16T04:58:48;27.90;;;19.27;;
21611;SDS011;47005;52.292;13.452;2023-04-16T05:01:15;26.00;;;18.47;;
21611;SDS011;47005;52.292;13.452;2023-04-16T05:03:41;27.27;;;18.83;;
21611;SDS011;47005;52.292;13.452;2023-04-16T05:06:06;27.30;;;18.50;;
21611;SDS011;47005;52.292;13.452;2023-04-16T05:08:32;26.80;;;18.40;;
21611;SDS011;47005;52.292;13.452;2023-04-16T05:10:57;25.63;;;17.80;;
21611;SDS011;47005;52.292;13.452;2023-04-16T05:13:23;26.43;;;19.27;;
21611;SDS011;47005;52.292;13.452;2023-04-16T05:15:49;25.90;;;18.40;;
21611;SDS011;47005;52.292;13.452;2023-04-16T05:18:14;25.10;;;18.40;;
21611;SDS011;47005;52.292;13.452;2023-04-16T05:20:40;24.13;;;17.73;;
21611;SDS011;47005;52.292;13.452;2023-04-16T05:23:12;25.87;;;17.60;;
21611;SDS011;47005;52.292;13.452;2023-04-16T05:25:39;27.83;;;20.27;;
21611;SDS011;47005;52.292;13.452;2023-04-16T05:28:08;30.10;;;18.27;;
21611;SDS011;47005;52.292;13.452;2023-04-16T05:30:34;26.73;;;18.67;;
21611;SDS011;47005;52.292;13.452;2023-04-16T05:33:00;28.60;;;18.43;;
21611;SDS011;47005;52.292;13.452;2023-04-16T05:35:25;26.50;;;17.67;;
21611;SDS011;47005;52.292;13.452;2023-04-16T05:37:51;23.17;;;17.17;;
21611;SDS011;47005;52.292;13.452;2023-04-16T05:40:17;27.33;;;17.57;;
21611;SDS011;47005;52.292;13.452;2023-04-16T05:42:42;25.97;;;16.30;;
21611;SDS011;47005;52.292;13.452;2023-04-16T05:45:08;28.43;;;17.23;;
21611;SDS011;47005;52.292;13.452;2023-04-16T05:47:34;24.10;;;16.50;;
21611;SDS011;47005;52.292;13.452;2023-04-16T05:50:00;21.50;;;16.90;;
21611;SDS011;47005;52.292;13.452;2023-04-16T05:52:25;24.90;;;16.47;;
21611;SDS011;47005;52.292;13.452;2023-04-16T05:54:51;24.37;;;16.13;;
21611;SDS011;47005;52.292;13.452;2023-04-16T05:57:17;21.57;;;15.87;;
21611;SDS011;47005;52.292;13.452;2023-04-16T05:59:42;25.00;;;17.27;;
21611;SDS011;47005;52.292;13.452;2023-04-16T06:02:08;23.23;;;15.80;;
21611;SDS011;47005;52.292;13.452;2023-04-16T06:04:33;24.03;;;15.90;;
21611;SDS011;47005;52.292;13.452;2023-04-16T06:07:00;22.27;;;16.37;;
21611;SDS011;47005;52.292;13.452;2023-04-16T06:09:25;20.77;;;13.93;;
21611;SDS011;47005;52.292;13.452;2023-04-16T06:11:52;19.93;;;14.53;;
21611;SDS011;47005;52.292;13.452;2023-04-16T06:14:18;25.97;;;15.03;;
21611;SDS011;47005;52.292;13.452;2023-04-16T06:16:43;23.90;;;15.40;;
21611;SDS011;47005;52.292;13.452;2023-04-16T06:19:09;21.87;;;15.13;;
21611;SDS011;47005;52.292;13.452;2023-04-16T06:21:35;22.93;;;15.83;;
21611;SDS011;47005;52.292;13.452;2023-04-16T06:24:01;23.67;;;16.73;;
21611;SDS011;47005;52.292;13.452;2023-04-16T06:26:27;23.23;;;14.87;;
21611;SDS011;47005;52.292;13.452;2023-04-16T06:28:53;22.47;;;15.60;;
21611;SDS011;47005;52.292;13.452;2023-04-16T06:31:18;21.87;;;16.10;;
21611;SDS011;47005;52.292;13.452;2023-04-16T06:33:44;24.40;;;17.33;;
21611;SDS011;47005;52.292;13.452;2023-04-16T06:36:10;22.83;;;15.97;;
21611;SDS011;47005;52.292;13.452;2023-04-16T06:38:36;28.10;;;16.37;;
21611;SDS011;47005;52.292;13.452;2023-04-16T06:41:02;21.47;;;15.53;;
21611;SDS011;47005;52.292;13.452;2023-04-16T06:43:28;24.37;;;15.83;;
21611;SDS011;47005;52.292;13.452;2023-04-16T06:45:57;23.10;;;16.17;;
21611;SDS011;47005;52.292;13.452;2023-04-16T06:48:23;23.90;;;15.17;;
21611;SDS011;47005;52.292;13.452;2023-04-16T06:50:49;26.20;;;16.90;;
21611;SDS011;47005;52.292;13.452;2023-04-16T06:53:15;25.13;;;17.17;;
21611;SDS011;47005;52.292;13.452;2023-04-16T06:55:41;28.83;;;16.10;;
21611;SDS011;47005;52.292;13.452;2023-04-16T06:58:06;25.17;;;15.93;;
21611;SDS011;47005;52.292;13.452;2023-04-16T07:00:32;28.47;;;16.50;;
21611;SDS011;47005;52.292;13.452;2023-04-16T07:02:59;28.57;;;17.70;;
21611;SDS011;47005;52.292;13.452;2023-04-16T07:05:25;23.83;;;15.43;;
21611;SDS011;47005;52.292;13.452;2023-04-16T07:07:51;24.77;;;15.53;;
21611;SDS011;47005;52.292;13.452;2023-04-16T07:10:16;21.77;;;15.57;;
21611;SDS011;47005;52.292;13.452;2023-04-16T07:12:42;23.53;;;15.70;;
21611;SDS011;47005;52.292;13.452;2023-04-16T07:15:11;23.03;;;15.53;;
21611;SDS011;47005;52.292;13.452;2023-04-16T07:17:39;26.30;;;16.00;;
21611;SDS011;47005;52.292;13.452;2023-04-16T07:20:05;22.93;;;15.03;;
21611;SDS011;47005;52.292;13.452;2023-04-16T07:22:32;24.63;;;15.23;;
21611;SDS011;47005;52.292;13.452;2023-04-16T07:24:57;22.13;;;14.97;;
21611;SDS011;47005;52.292;13.452;2023-04-16T07:27:23;22.50;;;14.17;;
21611;SDS011;47005;52.292;13.452;2023-04-16T07:29:49;22.33;;;15.00;;
21611;SDS011;47005;52.292;13.452;2023-04-16T07:32:14;24.30;;;14.80;;
21611;SDS011;47005;52.292;13.452;2023-04-16T07:34:43;22.47;;;15.60;;
21611;SDS011;47005;52.292;13.452;2023-04-16T07:37:09;19.73;;;13.40;;
21611;SDS011;47005;52.292;13.452;2023-04-16T07:39:35;21.37;;;13.93;;
21611;SDS011;47005;52.292;13.452;2023-04-16T07:42:00;23.07;;;13.87;;
21611;SDS011;47005;52.292;13.452;2023-04-16T07:44:26;23.60;;;15.50;;
21611;SDS011;47005;52.292;13.452;2023-04-16T07:46:55;20.57;;;13.07;;
21611;SDS011;47005;52.292;13.452;2023-04-16T07:49:20;22.27;;;13.87;;
21611;SDS011;47005;52.292;13.452;2023-04-16T07:51:46;22.73;;;14.07;;
21611;SDS011;47005;52.292;13.452;2023-04-16T07:54:12;17.97;;;12.80;;
21611;SDS011;47005;52.292;13.452;2023-04-16T07:56:37;18.07;;;12.73;;
21611;SDS011;47005;52.292;13.452;2023-04-16T07:59:03;25.23;;;12.83;;
21611;SDS011;47005;52.292;13.452;2023-04-16T08:01:28;21.50;;;13.93;;
21611;SDS011;47005;52.292;13.452;2023-04-16T08:03:55;18.47;;;13.20;;
21611;SDS011;47005;52.292;13.452;2023-04-16T08:06:20;20.97;;;13.60;;
21611;SDS011;47005;52.292;13.452;2023-04-16T08:08:46;20.80;;;13.50;;
21611;SDS011;47005;52.292;13.452;2023-04-16T08:11:12;18.53;;;12.93;;
21611;SDS011;47005;52.292;13.452;2023-04-16T08:13:37;15.37;;;12.83;;
21611;SDS011;47005;52.292;13.452;2023-04-16T08:16:03;21.77;;;14.27;;
21611;SDS011;47005;52.292;13.452;2023-04-16T08:18:29;19.43;;;13.00;;
21611;SDS011;47005;52.292;13.452;2023-04-16T08:20:55;20.53;;;13.13;;
21611;SDS011;47005;52.292;13.452;2023-04-16T08:23:20;18.23;;;13.50;;
21611;SDS011;47005;52.292;13.452;2023-04-16T08:25:46;16.03;;;12.30;;
21611;SDS011;47005;52.292;13.452;2023-04-16T08:28:12;25.37;;;14.63;;
21611;SDS011;47005;52.292;13.452;2023-04-16T08:30:37;20.67;;;13.57;;
21611;SDS011;47005;52.292;13.452;2023-04-16T08:33:03;17.33;;;12.37;;
21611;SDS011;47005;52.292;13.452;2023-04-16T08:35:29;17.97;;;13.30;;
21611;SDS011;47005;52.292;13.452;2023-04-16T08:37:55;18.63;;;12.33;;
21611;SDS011;47005;52.292;13.452;2023-04-16T08:40:22;16.70;;;11.57;;
21611;SDS011;47005;52.292;13.452;2023-04-16T08:42:53;18.17;;;11.97;;
21611;SDS011;47005;52.292;13.452;2023-04-16T08:45:22;19.47;;;12.73;;
21611;SDS011;47005;52.292;13.452;2023-04-16T08:47:50;14.93;;;10.53;;
21611;SDS011;47005;52.292;13.452;2023-04-16T08:50:21;16.67;;;11.37;;
21611;SDS011;47005;52.292;13.452;2023-04-16T08:52:52;16.90;;;11.63;;
21611;SDS011;47005;52.292;13.452;2023-04-16T08:55:24;14.93;;;11.70;;
21611;SDS011;47005;52.292;13.452;2023-04-16T08:57:57;16.60;;;10.10;;
21611;SDS011;47005;52.292;13.452;2023-04-16T09:00:25;14.20;;;10.73;;
21611;SDS011;47005;52.292;13.452;2023-04-16T09:02:52;16.27;;;10.07;;
21611;SDS011;47005;52.292;13.452;2023-04-16T09:05:18;15.70;;;11.60;;
21611;SDS011;47005;52.292;13.452;2023-04-16T09:07:47;17.77;;;10.77;;
21611;SDS011;47005;52.292;13.452;2023-04-16T09:10:15;19.20;;;12.47;;
21611;SDS011;47005;52.292;13.452;2023-04-16T09:12:42;17.70;;;11.63;;
21611;SDS011;47005;52.292;13.452;2023-04-16T09:15:12;18.00;;;11.93;;
21611;SDS011;47005;52.292;13.452;2023-04-16T09:17:38;15.67;;;11.83;;
21611;SDS011;47005;52.292;13.452;2023-04-16T09:20:04;15.70;;;11.67;;
21611;SDS011;47005;52.292;13.452;2023-04-16T09:22:33;16.43;;;11.80;;
21611;SDS011;47005;52.292;13.452;2023-04-16T09:25:00;16.20;;;12.50;;
21611;SDS011;47005;52.292;13.452;2023-04-16T09:27:25;20.27;;;12.37;;
21611;SDS011;47005;52.292;13.452;2023-04-16T09:29:51;16.13;;;11.53;;
21611;SDS011;47005;52.292;13.452;2023-04-16T09:32:18;17.70;;;12.90;;
21611;SDS011;47005;52.292;13.452;2023-04-16T09:34:58;18.57;;;11.80;;
21611;SDS011;47005;52.292;13.452;2023-04-16T09:37:26;18.13;;;11.63;;
21611;SDS011;47005;52.292;13.452;2023-04-16T09:39:59;17.43;;;12.73;;
21611;SDS011;47005;52.292;13.452;2023-04-16T09:42:32;20.90;;;12.20;;
21611;SDS011;47005;52.292;13.452;2023-04-16T09:45:00;15.40;;;11.10;;
21611;SDS011;47005;52.292;13.452;2023-04-16T09:47:37;15.37;;;10.53;;
21611;SDS011;47005;52.292;13.452;2023-04-16T09:50:05;17.80;;;11.57;;
21611;SDS011;47005;52.292;13.452;2023-04-16T09:52:34;17.67;;;10.63;;
21611;SDS011;47005;52.292;13.452;2023-04-16T09:55:01;16.50;;;10.80;;
21611;SDS011;47005;52.292;13.452;2023-04-16T09:57:27;16.63;;;12.23;;
21611;SDS011;47005;52.292;13.452;2023-04-16T09:59:54;18.50;;;11.27;;
21611;SDS011;47005;52.292;13.452;2023-04-16T10:02:29;17.30;;;11.93;;
21611;SDS011;47005;52.292;13.452;2023-04-16T10:04:55;16.83;;;11.57;;
21611;SDS011;47005;52.292;13.452;2023-04-16T10:07:21;19.30;;;12.70;;
21611;SDS011;47005;52.292;13.452;2023-04-16T10:09:51;15.60;;;11.33;;
21611;SDS011;47005;52.292;13.452;2023-04-16T10:12:17;16.73;;;12.20;;
21611;SDS011;47005;52.292;13.452;2023-04-16T10:14:43;16.53;;;11.60;;
21611;SDS011;47005;52.292;13.452;2023-04-16T10:17:09;18.13;;;10.97;;
21611;SDS011;47005;52.292;13.452;2023-04-16T10:19:35;16.00;;;9.83;;
21611;SDS011;47005;52.292;13.452;2023-04-16T10:22:02;15.53;;;10.70;;
21611;SDS011;47005;52.292;13.452;2023-04-16T10:24:28;14.60;;;9.93;;
21611;SDS011;47005;52.292;13.452;2023-04-16T10:26:55;15.90;;;10.60;;
21611;SDS011;47005;52.292;13.452;2023-04-16T10:29:21;18.07;;;11.20;;
21611;SDS011;47005;52.292;13.452;2023-04-16T10:31:48;12.93;;;9.10;;
21611;SDS011;47005;52.292;13.452;2023-04-16T10:34:15;15.80;;;9.90;;
21611;SDS011;47005;52.292;13.452;2023-04-16T10:36:41;13.57;;;10.03;;
21611;SDS011;47005;52.292;13.452;2023-04-16T10:39:11;13.37;;;9.77;;
21611;SDS011;47005;52.292;13.452;2023-04-16T10:41:38;14.93;;;10.03;;
21611;SDS011;47005;52.292;13.452;2023-04-16T10:51:54;12.87;;;9.27;;
21611;SDS011;47005;52.292;13.452;2023-04-16T10:54:24;15.33;;;10.23;;
21611;SDS011;47005;52.292;13.452;2023-04-16T10:56:51;12.57;;;9.53;;
21611;SDS011;47005;52.292;13.452;2023-04-16T10:59:19;12.93;;;8.93;;
21611;SDS011;47005;52.292;13.452;2023-04-16T11:01:48;12.17;;;9.20;;
21611;SDS011;47005;52.292;13.452;2023-04-16T11:12:48;11.05;;;7.47;;
21611;SDS011;47005;52.292;13.452;2023-04-16T11:15:15;11.55;;;8.73;;
21611;SDS011;47005;52.292;13.452;2023-04-16T11:17:47;11.55;;;9.27;;
21611;SDS011;47005;52.292;13.452;2023-04-16T11:20:17;14.32;;;10.70;;
21611;SDS011;47005;52.292;13.452;2023-04-16T11:22:48;14.88;;;11.02;;
21611;SDS011;47005;52.292;13.452;2023-04-16T11:25:20;14.90;;;9.57;;
21611;SDS011;47005;52.292;13.452;2023-04-16T11:27:47;14.50;;;10.03;;
21611;SDS011;47005;52.292;13.452;2023-04-16T11:30:13;14.97;;;9.57;;
21611;SDS011;47005;52.292;13.452;2023-04-16T11:32:39;15.07;;;10.60;;
21611;SDS011;47005;52.292;13.452;2023-04-16T11:37:41;14.80;;;11.67;;
21611;SDS011;47005;52.292;13.452;2023-04-16T11:40:10;17.63;;;11.80;;
21611;SDS011;47005;52.292;13.452;2023-04-16T11:42:36;16.23;;;11.73;;
21611;SDS011;47005;52.292;13.452;2023-04-16T11:45:07;14.97;;;11.07;;
21611;SDS011;47005;52.292;13.452;2023-04-16T11:47:45;14.93;;;11.07;;
21611;SDS011;47005;52.292;13.452;2023-04-16T11:50:23;20.50;;;11.33;;
21611;SDS011;47005;52.292;13.452;2023-04-16T11:52:50;16.87;;;10.93;;
21611;SDS011;47005;52.292;13.452;2023-04-16T11:55:17;17.03;;;11.43;;
21611;SDS011;47005;52.292;13.452;2023-04-16T11:57:43;16.17;;;11.50;;
21611;SDS011;47005;52.292;13.452;2023-04-16T12:00:10;14.57;;;11.17;;
21611;SDS011;47005;52.292;13.452;2023-04-16T12:02:47;18.30;;;11.18;;
21611;SDS011;47005;52.292;13.452;2023-04-16T12:07:56;15.00;;;10.55;;
21611;SDS011;47005;52.292;13.452;2023-04-16T12:10:22;15.18;;;11.32;;
21611;SDS011;47005;52.292;13.452;2023-04-16T12:12:48;18.52;;;11.60;;
21611;SDS011;47005;52.292;13.452;2023-04-16T12:15:14;16.20;;;11.17;;
21611;SDS011;47005;52.292;13.452;2023-04-16T12:17:40;14.77;;;11.03;;
21611;SDS011;47005;52.292;13.452;2023-04-16T12:20:10;16.20;;;11.07;;
21611;SDS011;47005;52.292;13.452;2023-04-16T12:22:45;13.70;;;10.77;;
21611;SDS011;47005;52.292;13.452;2023-04-16T12:30:19;17.30;;;10.80;;
21611;SDS011;47005;52.292;13.452;2023-04-16T12:32:49;12.67;;;11.27;;
21611;SDS011;47005;52.292;13.452;2023-04-16T12:35:31;16.47;;;13.00;;
21611;SDS011;47005;52.292;13.452;2023-04-16T12:37:58;15.60;;;11.57;;
21611;SDS011;47005;52.292;13.452;2023-04-16T12:40:24;18.37;;;12.63;;
21611;SDS011;47005;52.292;13.452;2023-04-16T12:42:51;17.83;;;12.27;;
21611;SDS011;47005;52.292;13.452;2023-04-16T12:45:17;17.33;;;12.40;;
21611;SDS011;47005;52.292;13.452;2023-04-16T12:47:42;19.60;;;12.10;;
21611;SDS011;47005;52.292;13.452;2023-04-16T12:50:08;15.57;;;11.27;;
21611;SDS011;47005;52.292;13.452;2023-04-16T12:52:35;18.73;;;12.73;;
21611;SDS011;47005;52.292;13.452;2023-04-16T12:55:01;17.53;;;11.00;;
21611;SDS011;47005;52.292;13.452;2023-04-16T12:57:27;15.07;;;11.80;;
21611;SDS011;47005;52.292;13.452;2023-04-16T12:59:53;17.20;;;12.33;;
21611;SDS011;47005;52.292;13.452;2023-04-16T13:02:20;15.83;;;11.97;;
21611;SDS011;47005;52.292;13.452;2023-04-16T13:04:47;16.80;;;13.43;;
21611;SDS011;47005;52.292;13.452;2023-04-16T13:07:13;21.10;;;12.63;;
21611;SDS011;47005;52.292;13.452;2023-04-16T13:09:39;18.47;;;11.83;;
21611;SDS011;47005;52.292;13.452;2023-04-16T13:12:05;19.83;;;12.57;;
21611;SDS011;47005;52.292;13.452;2023-04-16T13:14:31;16.33;;;11.93;;
21611;SDS011;47005;52.292;13.452;2023-04-16T13:16:56;16.83;;;13.50;;
21611;SDS011;47005;52.292;13.452;2023-04-16T13:19:22;15.43;;;11.68;;
21611;SDS011;47005;52.292;13.452;2023-04-16T13:21:48;19.73;;;12.13;;
21611;SDS011;47005;52.292;13.452;2023-04-16T13:24:13;14.90;;;12.43;;
21611;SDS011;47005;52.292;13.452;2023-04-16T13:26:39;15.33;;;12.37;;
21611;SDS011;47005;52.292;13.452;2023-04-16T13:29:06;16.10;;;13.07;;
21611;SDS011;47005;52.292;13.452;2023-04-16T13:31:32;15.00;;;12.10;;
21611;SDS011;47005;52.292;13.452;2023-04-16T13:33:57;15.37;;;12.50;;
21611;SDS011;47005;52.292;13.452;2023-04-16T13:36:23;17.00;;;13.13;;
21611;SDS011;47005;52.292;13.452;2023-04-16T13:38:49;15.67;;;12.27;;
21611;SDS011;47005;52.292;13.452;2023-04-16T13:41:14;20.63;;;12.93;;
21611;SDS011;47005;52.292;13.452;2023-04-16T13:43:40;15.53;;;12.37;;
21611;SDS011;47005;52.292;13.452;2023-04-16T13:46:05;15.33;;;10.87;;
21611;SDS011;47005;52.292;13.452;2023-04-16T13:48:31;15.87;;;11.27;;
21611;SDS011;47005;52.292;13.452;2023-04-16T13:50:57;14.50;;;11.73;;
21611;SDS011;47005;52.292;13.452;2023-04-16T13:53:22;12.23;;;9.33;;
21611;SDS011;47005;52.292;13.452;2023-04-16T13:55:48;12.27;;;10.10;;
21611;SDS011;47005;52.292;13.452;2023-04-16T13:58:15;12.13;;;9.57;;
21611;SDS011;47005;52.292;13.452;2023-04-16T14:00:41;13.27;;;10.17;;
21611;SDS011;47005;52.292;13.452;2023-04-16T14:03:07;16.97;;;11.00;;
21611;SDS011;47005;52.292;13.452;2023-04-16T14:05:32;15.17;;;10.00;;
21611;SDS011;47005;52.292;13.452;2023-04-16T14:07:58;15.00;;;10.93;;
21611;SDS011;47005;52.292;13.452;2023-04-16T14:10:24;15.23;;;11.33;;
21611;SDS011;47005;52.292;13.452;2023-04-16T14:12:49;14.43;;;11.53;;
21611;SDS011;47005;52.292;13.452;2023-04-16T14:15:15;17.47;;;11.70;;
21611;SDS011;47005;52.292;13.452;2023-04-16T14:17:42;16.87;;;10.23;;
21611;SDS011;47005;52.292;13.452;2023-04-16T14:20:09;15.03;;;11.40;;
21611;SDS011;47005;52.292;13.452;2023-04-16T14:22:36;16.17;;;10.23;;
21611;SDS011;47005;52.292;13.452;2023-04-16T14:25:02;17.90;;;11.40;;
21611;SDS011;47005;52.292;13.452;2023-04-16T14:27:28;13.83;;;10.17;;
21611;SDS011;47005;52.292;13.452;2023-04-16T14:29:55;13.30;;;10.63;;
21611;SDS011;47005;52.292;13.452;2023-04-16T14:32:20;14.13;;;11.37;;
21611;SDS011;47005;52.292;13.452;2023-04-16T14:34:46;15.13;;;11.03;;
21611;SDS011;47005;52.292;13.452;2023-04-16T14:37:12;15.67;;;11.03;;